New Athens, Ohio
Current Conditions -  °F | °C
As of 3:53 PM on Saturday 22 Nov 2014 (Local Time) from KHLG Reporting Station
Overcast Overcast  
Wind Chill: 40°   Ceiling: 5500
Heat Index: 45°   Visibility: 10mi
Dew Point: 26°   Wind: 10mph
Humidity: 48%   Direction: 210°SSW
Pressure: 30.16"   Gusts: NA
Location:  40.18°N, 81°W
Report Text: KHLG 222053Z 21009KT 10SM OVC055 07/M03 A3016 RMK AO2 RAB10E22 SLP226 P0000 60000 T00721033 56018
Loading
Personal Weather Stations






























Interactive Weather Map New forecast layout! Learn more

10-Day Weather Forecast

Advertisements
Track Severe Weather on mobile